sensor_id;sensor_type;location;lat;lon;timestamp;pressure;altitude;pressure_sealevel;temperature;humidity
18749;BME280;9503;53.560;10.246;2023-09-19T00:01:39;99699.69;;;21.05;84.54
18749;BME280;9503;53.560;10.246;2023-09-19T00:04:07;99696.63;;;21.46;82.37
18749;BME280;9503;53.560;10.246;2023-09-19T00:06:36;99697.03;;;21.08;83.99
18749;BME280;9503;53.560;10.246;2023-09-19T00:09:03;99693.22;;;21.41;82.16
18749;BME280;9503;53.560;10.246;2023-09-19T00:11:30;99695.59;;;21.58;81.73
18749;BME280;9503;53.560;10.246;2023-09-19T00:13:56;99690.41;;;21.56;82.23
18749;BME280;9503;53.560;10.246;2023-09-19T00:16:25;99698.94;;;20.95;84.65
18749;BME280;9503;53.560;10.246;2023-09-19T00:18:52;99698.31;;;21.50;82.55
18749;BME280;9503;53.560;10.246;2023-09-19T00:21:20;99696.41;;;20.87;84.78
18749;BME280;9503;53.560;10.246;2023-09-19T00:23:47;99699.50;;;21.23;84.49
18749;BME280;9503;53.560;10.246;2023-09-19T00:26:14;99700.34;;;21.25;84.32
18749;BME280;9503;53.560;10.246;2023-09-19T00:28:43;99709.66;;;22.12;80.13
18749;BME280;9503;53.560;10.246;2023-09-19T00:31:10;99700.28;;;21.97;80.29
18749;BME280;9503;53.560;10.246;2023-09-19T00:33:37;99705.59;;;21.88;80.67
18749;BME280;9503;53.560;10.246;2023-09-19T00:36:04;99706.19;;;21.47;82.90
18749;BME280;9503;53.560;10.246;2023-09-19T00:38:32;99710.81;;;22.48;79.67
18749;BME280;9503;53.560;10.246;2023-09-19T00:40:58;99708.44;;;21.73;82.48
18749;BME280;9503;53.560;10.246;2023-09-19T00:43:26;99699.81;;;20.92;85.96
18749;BME280;9503;53.560;10.246;2023-09-19T00:45:54;99695.44;;;21.70;82.27
18749;BME280;9503;53.560;10.246;2023-09-19T00:48:22;99695.91;;;21.35;82.69
18749;BME280;9503;53.560;10.246;2023-09-19T00:50:50;99697.78;;;21.20;83.26
18749;BME280;9503;53.560;10.246;2023-09-19T00:53:20;99711.09;;;20.94;84.81
18749;BME280;9503;53.560;10.246;2023-09-19T00:55:49;99704.47;;;22.07;80.65
18749;BME280;9503;53.560;10.246;2023-09-19T00:58:17;99704.97;;;22.34;79.81
18749;BME280;9503;53.560;10.246;2023-09-19T01:00:43;99702.75;;;22.06;81.22
18749;BME280;9503;53.560;10.246;2023-09-19T01:03:10;99704.63;;;21.95;80.64
18749;BME280;9503;53.560;10.246;2023-09-19T01:05:38;99705.31;;;22.10;80.30
18749;BME280;9503;53.560;10.246;2023-09-19T01:08:05;99714.06;;;22.05;80.79
18749;BME280;9503;53.560;10.246;2023-09-19T01:10:33;99712.28;;;22.07;80.40
18749;BME280;9503;53.560;10.246;2023-09-19T01:13:05;99720.25;;;22.00;81.52
18749;BME280;9503;53.560;10.246;2023-09-19T01:15:42;99713.97;;;22.15;80.90
18749;BME280;9503;53.560;10.246;2023-09-19T01:18:19;99721.19;;;21.94;81.94
18749;BME280;9503;53.560;10.246;2023-09-19T01:20:55;99712.75;;;21.77;82.27
18749;BME280;9503;53.560;10.246;2023-09-19T01:23:28;99724.03;;;22.38;80.43
18749;BME280;9503;53.560;10.246;2023-09-19T01:26:26;99731.84;;;21.79;81.51
18749;BME280;9503;53.560;10.246;2023-09-19T01:29:16;99723.03;;;21.89;80.90
18749;BME280;9503;53.560;10.246;2023-09-19T01:31:49;99727.44;;;21.84;82.04
18749;BME280;9503;53.560;10.246;2023-09-19T01:34:19;99731.91;;;21.73;82.93
18749;BME280;9503;53.560;10.246;2023-09-19T01:36:46;99728.13;;;21.29;85.09
18749;BME280;9503;53.560;10.246;2023-09-19T01:39:13;99735.63;;;21.57;83.55
18749;BME280;9503;53.560;10.246;2023-09-19T01:41:54;99736.03;;;21.18;85.01
18749;BME280;9503;53.560;10.246;2023-09-19T01:44:36;99750.09;;;21.04;85.77
18749;BME280;9503;53.560;10.246;2023-09-19T01:47:15;99733.31;;;21.32;85.17
18749;BME280;9503;53.560;10.246;2023-09-19T01:49:50;99737.00;;;21.84;81.51
18749;BME280;9503;53.560;10.246;2023-09-19T01:52:25;99725.72;;;21.80;83.26
18749;BME280;9503;53.560;10.246;2023-09-19T01:54:59;99731.81;;;21.80;82.90
18749;BME280;9503;53.560;10.246;2023-09-19T01:57:33;99729.25;;;21.77;81.79
18749;BME280;9503;53.560;10.246;2023-09-19T02:00:03;99734.88;;;21.47;81.57
18749;BME280;9503;53.560;10.246;2023-09-19T02:02:35;99745.44;;;22.02;79.99
18749;BME280;9503;53.560;10.246;2023-09-19T02:05:03;99739.84;;;21.65;81.68
18749;BME280;9503;53.560;10.246;2023-09-19T02:07:30;99747.69;;;21.64;82.54
18749;BME280;9503;53.560;10.246;2023-09-19T02:09:57;99750.88;;;22.47;78.93
18749;BME280;9503;53.560;10.246;2023-09-19T02:12:25;99755.06;;;21.99;79.91
18749;BME280;9503;53.560;10.246;2023-09-19T02:14:52;99758.94;;;21.69;81.12
18749;BME280;9503;53.560;10.246;2023-09-19T02:17:18;99756.66;;;22.11;80.43
18749;BME280;9503;53.560;10.246;2023-09-19T02:19:46;99764.72;;;21.92;80.38
18749;BME280;9503;53.560;10.246;2023-09-19T02:22:13;99766.22;;;22.10;80.14
18749;BME280;9503;53.560;10.246;2023-09-19T02:24:41;99778.78;;;21.82;79.49
18749;BME280;9503;53.560;10.246;2023-09-19T02:27:08;99782.03;;;21.30;81.82
18749;BME280;9503;53.560;10.246;2023-09-19T02:29:37;99783.38;;;21.62;81.22
18749;BME280;9503;53.560;10.246;2023-09-19T02:32:04;99771.72;;;21.90;80.33
18749;BME280;9503;53.560;10.246;2023-09-19T02:34:31;99774.47;;;21.79;80.06
18749;BME280;9503;53.560;10.246;2023-09-19T02:37:03;99779.41;;;21.32;81.19
18749;BME280;9503;53.560;10.246;2023-09-19T02:39:31;99788.75;;;21.49;80.34
18749;BME280;9503;53.560;10.246;2023-09-19T02:41:58;99792.28;;;21.44;80.27
18749;BME280;9503;53.560;10.246;2023-09-19T02:44:25;99789.56;;;22.22;76.73
18749;BME280;9503;53.560;10.246;2023-09-19T02:46:52;99796.09;;;21.88;78.28
18749;BME280;9503;53.560;10.246;2023-09-19T02:49:19;99786.25;;;22.10;76.95
18749;BME280;9503;53.560;10.246;2023-09-19T02:51:46;99795.16;;;21.15;79.79
18749;BME280;9503;53.560;10.246;2023-09-19T02:54:15;99785.47;;;21.32;80.54
18749;BME280;9503;53.560;10.246;2023-09-19T02:56:42;99780.72;;;21.68;77.94
18749;BME280;9503;53.560;10.246;2023-09-19T02:59:09;99787.97;;;21.41;79.34
18749;BME280;9503;53.560;10.246;2023-09-19T03:01:36;99791.88;;;21.79;77.87
18749;BME280;9503;53.560;10.246;2023-09-19T03:04:04;99778.88;;;22.39;75.28
18749;BME280;9503;53.560;10.246;2023-09-19T03:06:32;99800.97;;;21.43;77.73
18749;BME280;9503;53.560;10.246;2023-09-19T03:08:59;99797.41;;;21.51;78.31
18749;BME280;9503;53.560;10.246;2023-09-19T03:11:27;99789.72;;;22.13;76.05
18749;BME280;9503;53.560;10.246;2023-09-19T03:13:55;99788.25;;;21.11;79.95
18749;BME280;9503;53.560;10.246;2023-09-19T03:16:21;99786.72;;;21.74;77.63
18749;BME280;9503;53.560;10.246;2023-09-19T03:18:48;99787.91;;;22.18;76.64
18749;BME280;9503;53.560;10.246;2023-09-19T03:21:15;99801.16;;;21.24;79.16
18749;BME280;9503;53.560;10.246;2023-09-19T03:23:43;99792.53;;;21.15;79.34
18749;BME280;9503;53.560;10.246;2023-09-19T03:26:11;99800.06;;;22.19;76.24
18749;BME280;9503;53.560;10.246;2023-09-19T03:28:41;99801.50;;;22.39;76.02
18749;BME280;9503;53.560;10.246;2023-09-19T03:31:08;99802.72;;;22.73;74.34
18749;BME280;9503;53.560;10.246;2023-09-19T03:33:35;99797.03;;;21.84;77.83
18749;BME280;9503;53.560;10.246;2023-09-19T03:36:03;99799.22;;;21.46;79.31
18749;BME280;9503;53.560;10.246;2023-09-19T03:38:31;99801.09;;;21.34;80.60
18749;BME280;9503;53.560;10.246;2023-09-19T03:40:58;99795.22;;;21.90;78.34
18749;BME280;9503;53.560;10.246;2023-09-19T03:43:26;99792.19;;;21.53;79.21
18749;BME280;9503;53.560;10.246;2023-09-19T03:45:54;99799.66;;;21.80;77.80
18749;BME280;9503;53.560;10.246;2023-09-19T03:48:20;99801.59;;;20.79;81.07
18749;BME280;9503;53.560;10.246;2023-09-19T03:50:48;99809.16;;;21.05;79.97
18749;BME280;9503;53.560;10.246;2023-09-19T03:53:15;99813.75;;;20.80;80.79
18749;BME280;9503;53.560;10.246;2023-09-19T03:55:41;99810.88;;;21.09;80.14
18749;BME280;9503;53.560;10.246;2023-09-19T03:58:10;99816.25;;;20.93;79.44
18749;BME280;9503;53.560;10.246;2023-09-19T04:00:37;99813.94;;;20.57;80.19
18749;BME280;9503;53.560;10.246;2023-09-19T04:03:05;99818.34;;;20.42;78.78
18749;BME280;9503;53.560;10.246;2023-09-19T04:05:33;99820.03;;;20.53;78.21
18749;BME280;9503;53.560;10.246;2023-09-19T04:07:59;99829.44;;;20.70;77.72
18749;BME280;9503;53.560;10.246;2023-09-19T04:10:26;99831.25;;;20.56;77.30
18749;BME280;9503;53.560;10.246;2023-09-19T04:12:54;99839.63;;;21.00;75.66
18749;BME280;9503;53.560;10.246;2023-09-19T04:15:21;99832.38;;;20.11;76.74
18749;BME280;9503;53.560;10.246;2023-09-19T04:17:48;99848.91;;;20.07;77.19
18749;BME280;9503;53.560;10.246;2023-09-19T04:20:17;99847.13;;;20.13;75.94
18749;BME280;9503;53.560;10.246;2023-09-19T04:22:44;99838.56;;;19.92;74.67
18749;BME280;9503;53.560;10.246;2023-09-19T04:25:11;99839.31;;;20.15;73.81
18749;BME280;9503;53.560;10.246;2023-09-19T04:27:38;99843.34;;;20.68;71.70
18749;BME280;9503;53.560;10.246;2023-09-19T04:30:07;99856.81;;;19.73;73.81
18749;BME280;9503;53.560;10.246;2023-09-19T04:32:35;99861.97;;;19.90;72.27
18749;BME280;9503;53.560;10.246;2023-09-19T04:35:04;99870.34;;;20.59;69.54
18749;BME280;9503;53.560;10.246;2023-09-19T04:37:37;99869.00;;;19.65;71.71
18749;BME280;9503;53.560;10.246;2023-09-19T04:40:06;99888.94;;;19.58;72.92
18749;BME280;9503;53.560;10.246;2023-09-19T04:42:38;99887.22;;;19.42;73.21
18749;BME280;9503;53.560;10.246;2023-09-19T04:45:06;99888.94;;;19.49;73.10
18749;BME280;9503;53.560;10.246;2023-09-19T04:47:33;99881.09;;;19.68;71.83
18749;BME280;9503;53.560;10.246;2023-09-19T04:49:59;99889.72;;;19.93;71.07
18749;BME280;9503;53.560;10.246;2023-09-19T04:52:26;99901.91;;;19.84;72.15
18749;BME280;9503;53.560;10.246;2023-09-19T04:54:54;99891.53;;;18.74;74.20
18749;BME280;9503;53.560;10.246;2023-09-19T04:57:21;99903.69;;;19.20;73.80
18749;BME280;9503;53.560;10.246;2023-09-19T04:59:48;99907.09;;;19.86;71.70
18749;BME280;9503;53.560;10.246;2023-09-19T05:02:15;99905.41;;;19.65;72.51
18749;BME280;9503;53.560;10.246;2023-09-19T05:04:42;99914.94;;;19.69;72.29
18749;BME280;9503;53.560;10.246;2023-09-19T05:07:08;99906.06;;;20.25;69.97
18749;BME280;9503;53.560;10.246;2023-09-19T05:09:37;99901.94;;;18.81;74.36
18749;BME280;9503;53.560;10.246;2023-09-19T05:12:05;99905.44;;;19.10;73.88
18749;BME280;9503;53.560;10.246;2023-09-19T05:14:32;99901.06;;;19.43;72.46
18749;BME280;9503;53.560;10.246;2023-09-19T05:16:58;99886.34;;;19.34;72.28
18749;BME280;9503;53.560;10.246;2023-09-19T05:19:25;99913.19;;;19.68;70.68
18749;BME280;9503;53.560;10.246;2023-09-19T05:21:52;99921.84;;;19.75;71.62
18749;BME280;9503;53.560;10.246;2023-09-19T05:24:20;99921.88;;;19.76;70.86
18749;BME280;9503;53.560;10.246;2023-09-19T05:26:48;99933.16;;;19.63;69.92
18749;BME280;9503;53.560;10.246;2023-09-19T05:29:16;99928.81;;;19.48;71.83
18749;BME280;9503;53.560;10.246;2023-09-19T05:31:43;99921.88;;;19.35;71.24
18749;BME280;9503;53.560;10.246;2023-09-19T05:34:09;99935.75;;;19.34;72.11
18749;BME280;9503;53.560;10.246;2023-09-19T05:36:36;99931.41;;;19.24;72.71
18749;BME280;9503;53.560;10.246;2023-09-19T05:39:04;99937.47;;;19.38;72.71
18749;BME280;9503;53.560;10.246;2023-09-19T05:41:34;99944.38;;;19.79;70.77
18749;BME280;9503;53.560;10.246;2023-09-19T05:44:01;99937.47;;;19.59;72.07
18749;BME280;9503;53.560;10.246;2023-09-19T05:46:29;99927.94;;;19.60;72.13
18749;BME280;9503;53.560;10.246;2023-09-19T05:48:56;99929.66;;;19.55;73.21
18749;BME280;9503;53.560;10.246;2023-09-19T05:51:23;99932.28;;;19.49;73.08
18749;BME280;9503;53.560;10.246;2023-09-19T05:53:50;99925.09;;;20.42;70.70
18749;BME280;9503;53.560;10.246;2023-09-19T05:56:20;99942.47;;;20.36;69.83
18749;BME280;9503;53.560;10.246;2023-09-19T05:58:46;99942.16;;;21.02;67.03
18749;BME280;9503;53.560;10.246;2023-09-19T06:01:13;99947.19;;;21.24;66.77
18749;BME280;9503;53.560;10.246;2023-09-19T06:03:41;99957.88;;;21.94;66.15
18749;BME280;9503;53.560;10.246;2023-09-19T06:06:08;99954.53;;;22.58;63.84
18749;BME280;9503;53.560;10.246;2023-09-19T06:08:35;99956.38;;;21.70;66.62
18749;BME280;9503;53.560;10.246;2023-09-19T06:11:01;99950.16;;;21.83;65.21
18749;BME280;9503;53.560;10.246;2023-09-19T06:13:30;99953.03;;;21.56;66.21
18749;BME280;9503;53.560;10.246;2023-09-19T06:15:59;99946.31;;;21.25;66.59
18749;BME280;9503;53.560;10.246;2023-09-19T06:18:28;99950.25;;;21.72;66.09
18749;BME280;9503;53.560;10.246;2023-09-19T06:21:00;99953.94;;;21.53;66.52
18749;BME280;9503;53.560;10.246;2023-09-19T06:23:30;99953.41;;;21.08;67.97
18749;BME280;9503;53.560;10.246;2023-09-19T06:25:57;99964.22;;;20.18;70.79
18749;BME280;9503;53.560;10.246;2023-09-19T06:28:24;99953.91;;;21.51;67.33
18749;BME280;9503;53.560;10.246;2023-09-19T06:30:53;99958.97;;;21.70;67.11
18749;BME280;9503;53.560;10.246;2023-09-19T06:33:20;99956.69;;;21.33;68.18
18749;BME280;9503;53.560;10.246;2023-09-19T06:35:47;99966.63;;;21.87;66.62
18749;BME280;9503;53.560;10.246;2023-09-19T06:38:15;99965.88;;;20.53;69.13
18749;BME280;9503;53.560;10.246;2023-09-19T06:40:44;99979.31;;;21.31;68.29
18749;BME280;9503;53.560;10.246;2023-09-19T06:43:11;99970.41;;;21.57;67.31
18749;BME280;9503;53.560;10.246;2023-09-19T06:45:38;99970.41;;;21.57;67.71
18749;BME280;9503;53.560;10.246;2023-09-19T06:48:05;99971.59;;;21.16;67.44
18749;BME280;9503;53.560;10.246;2023-09-19T06:50:32;99968.16;;;21.09;68.58
18749;BME280;9503;53.560;10.246;2023-09-19T06:53:00;99971.66;;;21.04;69.87
18749;BME280;9503;53.560;10.246;2023-09-19T06:55:29;99976.16;;;20.77;70.26
18749;BME280;9503;53.560;10.246;2023-09-19T06:57:57;99973.63;;;20.66;70.74
18749;BME280;9503;53.560;10.246;2023-09-19T07:00:24;99978.97;;;20.28;72.11
18749;BME280;9503;53.560;10.246;2023-09-19T07:02:57;99976.09;;;20.91;69.61
18749;BME280;9503;53.560;10.246;2023-09-19T07:05:26;99966.69;;;20.65;70.45
18749;BME280;9503;53.560;10.246;2023-09-19T07:07:54;99970.84;;;20.92;71.49
18749;BME280;9503;53.560;10.246;2023-09-19T07:10:21;99981.38;;;20.77;70.69
18749;BME280;9503;53.560;10.246;2023-09-19T07:12:55;99989.66;;;21.42;69.56
18749;BME280;9503;53.560;10.246;2023-09-19T07:15:21;99990.59;;;21.38;69.49
18749;BME280;9503;53.560;10.246;2023-09-19T07:17:50;100009.63;;;21.44;68.83
18749;BME280;9503;53.560;10.246;2023-09-19T07:20:17;100011.78;;;20.80;70.39
18749;BME280;9503;53.560;10.246;2023-09-19T07:22:44;100006.50;;;20.90;70.67
18749;BME280;9503;53.560;10.246;2023-09-19T07:25:10;100009.22;;;20.66;70.38
18749;BME280;9503;53.560;10.246;2023-09-19T07:27:39;100022.53;;;21.63;68.63
18749;BME280;9503;53.560;10.246;2023-09-19T07:30:08;100021.34;;;20.73;71.31
18749;BME280;9503;53.560;10.246;2023-09-19T07:32:35;100019.78;;;21.79;68.90
18749;BME280;9503;53.560;10.246;2023-09-19T07:35:04;100015.66;;;21.51;67.43
18749;BME280;9503;53.560;10.246;2023-09-19T07:37:32;100013.75;;;21.71;67.75
18749;BME280;9503;53.560;10.246;2023-09-19T07:39:59;100015.47;;;21.74;67.76
18749;BME280;9503;53.560;10.246;2023-09-19T07:42:26;100021.13;;;21.13;69.59
18749;BME280;9503;53.560;10.246;2023-09-19T07:44:53;100025.84;;;21.83;68.04
18749;BME280;9503;53.560;10.246;2023-09-19T07:47:20;100021.00;;;21.37;67.67
18749;BME280;9503;53.560;10.246;2023-09-19T07:49:47;100027.31;;;20.92;70.19
18749;BME280;9503;53.560;10.246;2023-09-19T07:52:14;100027.91;;;21.41;67.93
18749;BME280;9503;53.560;10.246;2023-09-19T07:54:41;100034.22;;;21.05;69.25
18749;BME280;9503;53.560;10.246;2023-09-19T07:57:09;100032.47;;;21.09;69.71
18749;BME280;9503;53.560;10.246;2023-09-19T07:59:36;100031.69;;;20.88;69.79
18749;BME280;9503;53.560;10.246;2023-09-19T08:02:03;100035.94;;;21.09;69.38
18749;BME280;9503;53.560;10.246;2023-09-19T08:04:32;100030.63;;;21.28;69.07
18749;BME280;9503;53.560;10.246;2023-09-19T08:06:59;100029.88;;;21.04;69.40
18749;BME280;9503;53.560;10.246;2023-09-19T08:09:25;100039.72;;;20.12;71.38
18749;BME280;9503;53.560;10.246;2023-09-19T08:11:52;100036.03;;;20.94;69.33
18749;BME280;9503;53.560;10.246;2023-09-19T08:14:19;100033.59;;;20.39;70.96
18749;BME280;9503;53.560;10.246;2023-09-19T08:16:48;100040.53;;;20.58;71.57
18749;BME280;9503;53.560;10.246;2023-09-19T08:19:14;100050.00;;;20.73;70.43
18749;BME280;9503;53.560;10.246;2023-09-19T08:21:42;100037.75;;;20.93;68.34
18749;BME280;9503;53.560;10.246;2023-09-19T08:24:12;100050.63;;;21.30;67.22
18749;BME280;9503;53.560;10.246;2023-09-19T08:26:39;100051.41;;;21.37;66.45
18749;BME280;9503;53.560;10.246;2023-09-19T08:29:06;100037.94;;;20.40;66.97
18749;BME280;9503;53.560;10.246;2023-09-19T08:31:33;100045.38;;;21.22;66.61
18749;BME280;9503;53.560;10.246;2023-09-19T08:34:00;100045.75;;;21.96;64.03
18749;BME280;9503;53.560;10.246;2023-09-19T08:36:26;100046.72;;;21.83;63.87
18749;BME280;9503;53.560;10.246;2023-09-19T08:38:54;100034.03;;;21.39;65.50
18749;BME280;9503;53.560;10.246;2023-09-19T08:41:21;100047.41;;;20.73;67.73
18749;BME280;9503;53.560;10.246;2023-09-19T08:43:48;100033.47;;;20.80;67.76
18749;BME280;9503;53.560;10.246;2023-09-19T08:46:16;100050.81;;;20.84;67.87
18749;BME280;9503;53.560;10.246;2023-09-19T08:48:46;100041.19;;;20.98;67.25
18749;BME280;9503;53.560;10.246;2023-09-19T08:51:18;100043.81;;;20.95;67.54
18749;BME280;9503;53.560;10.246;2023-09-19T08:53:51;100043.91;;;20.76;66.65
18749;BME280;9503;53.560;10.246;2023-09-19T08:56:19;100047.28;;;20.97;67.64
18749;BME280;9503;53.560;10.246;2023-09-19T08:58:51;100043.75;;;21.11;66.62
18749;BME280;9503;53.560;10.246;2023-09-19T09:01:20;100048.47;;;21.81;65.26
18749;BME280;9503;53.560;10.246;2023-09-19T09:03:51;100050.81;;;22.13;63.80
18749;BME280;9503;53.560;10.246;2023-09-19T09:06:18;100044.31;;;21.57;65.71
18749;BME280;9503;53.560;10.246;2023-09-19T09:08:46;100053.56;;;21.95;64.81
18749;BME280;9503;53.560;10.246;2023-09-19T09:11:14;100061.66;;;22.58;63.88
18749;BME280;9503;53.560;10.246;2023-09-19T09:13:44;100056.09;;;22.84;62.86
18749;BME280;9503;53.560;10.246;2023-09-19T09:16:11;100055.94;;;22.98;62.32
18749;BME280;9503;53.560;10.246;2023-09-19T09:18:39;100061.22;;;22.16;63.40
18749;BME280;9503;53.560;10.246;2023-09-19T09:21:06;100064.00;;;21.98;64.36
18749;BME280;9503;53.560;10.246;2023-09-19T09:23:33;100070.72;;;22.26;63.40
18749;BME280;9503;53.560;10.246;2023-09-19T09:26:00;100062.94;;;22.22;63.37
18749;BME280;9503;53.560;10.246;2023-09-19T09:28:30;100067.34;;;22.95;61.64
18749;BME280;9503;53.560;10.246;2023-09-19T09:31:00;100068.22;;;22.94;62.11
18749;BME280;9503;53.560;10.246;2023-09-19T09:33:28;100067.88;;;22.46;62.39
18749;BME280;9503;53.560;10.246;2023-09-19T09:35:56;100074.69;;;22.61;61.63
18749;BME280;9503;53.560;10.246;2023-09-19T09:38:24;100058.84;;;21.87;62.73
18749;BME280;9503;53.560;10.246;2023-09-19T09:40:57;100074.25;;;23.59;59.19
18749;BME280;9503;53.560;10.246;2023-09-19T09:43:33;100082.72;;;22.43;61.56
18749;BME280;9503;53.560;10.246;2023-09-19T09:46:10;100072.81;;;22.72;60.56
18749;BME280;9503;53.560;10.246;2023-09-19T09:49:05;100078.75;;;22.88;60.98
18749;BME280;9503;53.560;10.246;2023-09-19T09:51:42;100084.72;;;22.99;60.32
18749;BME280;9503;53.560;10.246;2023-09-19T09:54:11;100089.00;;;23.03;58.96
18749;BME280;9503;53.560;10.246;2023-09-19T09:56:52;100075.53;;;22.65;60.95
18749;BME280;9503;53.560;10.246;2023-09-19T09:59:18;100075.91;;;22.29;61.56
18749;BME280;9503;53.560;10.246;2023-09-19T10:01:50;100078.69;;;22.94;59.89
18749;BME280;9503;53.560;10.246;2023-09-19T10:04:27;100074.31;;;22.95;59.26
18749;BME280;9503;53.560;10.246;2023-09-19T10:06:57;100069.06;;;23.56;58.50
18749;BME280;9503;53.560;10.246;2023-09-19T10:09:23;100068.94;;;23.05;58.74
18749;BME280;9503;53.560;10.246;2023-09-19T10:12:05;100077.97;;;24.00;57.10
18749;BME280;9503;53.560;10.246;2023-09-19T10:14:37;100080.38;;;24.12;56.07
18749;BME280;9503;53.560;10.246;2023-09-19T10:17:05;100081.53;;;23.97;55.95
18749;BME280;9503;53.560;10.246;2023-09-19T10:19:37;100082.69;;;23.21;57.31
18749;BME280;9503;53.560;10.246;2023-09-19T10:22:05;100078.84;;;22.79;57.75
18749;BME280;9503;53.560;10.246;2023-09-19T10:24:35;100076.38;;;23.34;56.34
18749;BME280;9503;53.560;10.246;2023-09-19T10:27:04;100085.53;;;23.64;55.01
18749;BME280;9503;53.560;10.246;2023-09-19T10:29:35;100085.84;;;24.00;55.02
18749;BME280;9503;53.560;10.246;2023-09-19T10:32:04;100089.91;;;24.16;54.01
18749;BME280;9503;53.560;10.246;2023-09-19T10:34:35;100088.38;;;24.54;53.67
18749;BME280;9503;53.560;10.246;2023-09-19T10:37:02;100083.06;;;24.08;54.15
18749;BME280;9503;53.560;10.246;2023-09-19T10:39:32;100077.56;;;24.24;54.23
18749;BME280;9503;53.560;10.246;2023-09-19T10:42:02;100076.22;;;24.93;53.36
18749;BME280;9503;53.560;10.246;2023-09-19T10:44:32;100075.72;;;23.79;55.12
18749;BME280;9503;53.560;10.246;2023-09-19T10:46:59;100076.53;;;23.82;55.26
18749;BME280;9503;53.560;10.246;2023-09-19T10:49:27;100077.38;;;24.80;53.72
18749;BME280;9503;53.560;10.246;2023-09-19T10:51:56;100077.31;;;25.62;52.65
18749;BME280;9503;53.560;10.246;2023-09-19T10:54:28;100086.00;;;25.66;52.58
18749;BME280;9503;53.560;10.246;2023-09-19T10:56:58;100085.34;;;25.17;53.48
18749;BME280;9503;53.560;10.246;2023-09-19T10:59:26;100079.00;;;24.42;54.39
18749;BME280;9503;53.560;10.246;2023-09-19T11:02:00;100077.88;;;23.49;54.89
18749;BME280;9503;53.560;10.246;2023-09-19T11:04:44;100079.63;;;22.87;56.38
18749;BME280;9503;53.560;10.246;2023-09-19T11:07:13;100074.03;;;23.76;54.75
18749;BME280;9503;53.560;10.246;2023-09-19T11:09:45;100080.75;;;23.91;55.00
18749;BME280;9503;53.560;10.246;2023-09-19T11:12:12;100077.16;;;24.47;53.50
18749;BME280;9503;53.560;10.246;2023-09-19T11:14:41;100079.03;;;23.90;54.85
18749;BME280;9503;53.560;10.246;2023-09-19T11:17:40;100081.41;;;23.48;56.19
18749;BME280;9503;53.560;10.246;2023-09-19T11:20:31;100075.94;;;24.17;54.46
18749;BME280;9503;53.560;10.246;2023-09-19T11:23:23;100076.00;;;23.62;54.99
18749;BME280;9503;53.560;10.246;2023-09-19T11:25:53;100080.41;;;23.55;55.46
18749;BME280;9503;53.560;10.246;2023-09-19T11:28:33;100080.16;;;24.26;54.40
18749;BME280;9503;53.560;10.246;2023-09-19T11:34:46;100067.31;;;23.58;54.95
18749;BME280;9503;53.560;10.246;2023-09-19T11:40:46;100080.50;;;24.06;54.42
18749;BME280;9503;53.560;10.246;2023-09-19T11:43:30;100077.41;;;23.83;53.97
18749;BME280;9503;53.560;10.246;2023-09-19T11:46:07;100081.72;;;23.85;52.60
18749;BME280;9503;53.560;10.246;2023-09-19T11:48:40;100079.19;;;24.76;52.39
18749;BME280;9503;53.560;10.246;2023-09-19T11:51:11;100078.34;;;23.80;54.00
18749;BME280;9503;53.560;10.246;2023-09-19T11:53:45;100086.81;;;24.44;52.91
18749;BME280;9503;53.560;10.246;2023-09-19T11:56:15;100076.03;;;23.57;54.63
18749;BME280;9503;53.560;10.246;2023-09-19T11:58:43;100079.81;;;23.38;54.21
18749;BME280;9503;53.560;10.246;2023-09-19T12:01:13;100078.25;;;23.25;55.14
18749;BME280;9503;53.560;10.246;2023-09-19T12:03:46;100081.72;;;24.36;54.06
18749;BME280;9503;53.560;10.246;2023-09-19T12:06:14;100071.44;;;23.75;54.36
18749;BME280;9503;53.560;10.246;2023-09-19T12:08:41;100065.22;;;23.82;54.79
18749;BME280;9503;53.560;10.246;2023-09-19T12:11:12;100068.19;;;25.01;53.12
18749;BME280;9503;53.560;10.246;2023-09-19T12:13:43;100066.56;;;24.95;53.44
18749;BME280;9503;53.560;10.246;2023-09-19T12:16:14;100060.78;;;25.58;52.55
18749;BME280;9503;53.560;10.246;2023-09-19T12:18:42;100070.91;;;24.55;53.55
18749;BME280;9503;53.560;10.246;2023-09-19T12:21:25;100074.91;;;23.15;56.88
18749;BME280;9503;53.560;10.246;2023-09-19T12:23:58;100068.22;;;24.58;54.59
18749;BME280;9503;53.560;10.246;2023-09-19T12:26:26;100079.69;;;24.03;55.71
18749;BME280;9503;53.560;10.246;2023-09-19T12:28:55;100078.06;;;24.45;54.90
18749;BME280;9503;53.560;10.246;2023-09-19T12:31:22;100077.41;;;24.34;54.72
18749;BME280;9503;53.560;10.246;2023-09-19T12:33:53;100077.03;;;24.53;54.52
18749;BME280;9503;53.560;10.246;2023-09-19T12:36:21;100073.16;;;23.76;54.97
18749;BME280;9503;53.560;10.246;2023-09-19T12:38:50;100077.94;;;24.94;53.33
18749;BME280;9503;53.560;10.246;2023-09-19T12:41:18;100068.31;;;25.37;52.85
18749;BME280;9503;53.560;10.246;2023-09-19T12:43:46;100067.16;;;25.47;52.09
18749;BME280;9503;53.560;10.246;2023-09-19T12:46:14;100075.03;;;25.10;52.41
18749;BME280;9503;53.560;10.246;2023-09-19T12:48:45;100075.69;;;25.58;51.11
18749;BME280;9503;53.560;10.246;2023-09-19T12:51:13;100076.97;;;25.77;50.10
18749;BME280;9503;53.560;10.246;2023-09-19T12:53:42;100078.31;;;25.19;51.63
18749;BME280;9503;53.560;10.246;2023-09-19T12:56:12;100068.25;;;24.98;52.13
18749;BME280;9503;53.560;10.246;2023-09-19T12:58:54;100062.16;;;25.75;51.05
18749;BME280;9503;53.560;10.246;2023-09-19T13:01:23;100047.88;;;25.12;51.61
18749;BME280;9503;53.560;10.246;2023-09-19T13:04:10;100055.75;;;24.22;54.62
18749;BME280;9503;53.560;10.246;2023-09-19T13:06:38;100050.28;;;25.21;52.07
18749;BME280;9503;53.560;10.246;2023-09-19T13:09:08;100056.63;;;24.21;53.68
18749;BME280;9503;53.560;10.246;2023-09-19T13:11:36;100047.00;;;24.70;52.76
18749;BME280;9503;53.560;10.246;2023-09-19T13:14:16;100039.84;;;25.18;51.31